Airfield :
LOGIN :

Register | Disclaimer

   EN    FR    IT 

 










Legend :    VFR   Marginal VFR   IFR   Intensive IFR   Very Intensive IFR
Visi :
Ceiling :
>= 8 km
>= 3000ft
5 to 8 km
1000 to 3000 ft
1500m to 5 km
500 to 1000 ft
800 to 1500m
200 to 500 ft
< 800m
< 200 ft
Symbols :   Thunderstorms  Fog  Heavy snow  Heavy precipitations  Wind > 20 kt
SIGMETs :     Misc.  Thunderstorms  Icing  Turbulence  Mountain Waves  Volcanic Ashes






- Airport Elevation : 436 ft
- IATA code : ANG


LFBU - Angoulême Brie Champniers

CURRENT METAR :
  • 061530Z AUTO 16006KT 4400 BR OVC003 06/06 Q1020 TEMPO 8000 NSW BKN007

EXPIRED METARs :
  • 061500Z AUTO 18006KT 8000 OVC004 06/06 Q1021 TEMPO BKN007
  • 061430Z AUTO 18007KT 8000 OVC003 06/06 Q1021 TEMPO BKN007
  • 061400Z AUTO 18006KT 7000 OVC003 06/06 Q1021 TEMPO BKN007
  • 061330Z AUTO 19006KT 160V230 8000 OVC002 06/06 Q1021 BECMG OVC007
  • 061300Z AUTO 18008KT 150V220 2500 BR OVC002 06/06 Q1021 BECMG 8000 NSW OVC007
  • 061230Z AUTO 18008KT 150V210 2800 BR OVC002 06/06 Q1022 BECMG 8000 NSW OVC007

TAF AMD TAF LFBU
Valid from the 06 at 13:00 until the 07 at 12:00 UTC


061320Z 0613/0712 18008KT 3000 BR OVC002
TEMPO 0614/0618 8000 NSW BKN007
TEMPO 0622/0712 1500 DZRA OVC002



MET'MAP, your aeronautical weather chart ! - Copyright ORBIFLY December 2007 - Disclaimer

ORBIFLY MET'MAP TEAM :

Programming & Development : Alexandra Zaïnal
Concept & original design : Baudouin d'Aumeries
Assistance for programming : Marc-Olivier Méhu
Technical & hardware support : Manuel Goepfert

Contact : metmap@orbifly.com




SOURCES & CREDITS :

   NOAA